createdAt,value
2018-09-14T00:01:29.198Z,15.97
2018-09-14T00:04:08.022Z,14.00
2018-09-14T00:06:45.251Z,14.47
2018-09-14T00:09:24.530Z,16.27
2018-09-14T00:12:04.220Z,14.70
2018-09-14T00:14:41.012Z,15.50
2018-09-14T00:17:18.585Z,14.40
2018-09-14T00:19:58.589Z,15.37
2018-09-14T00:22:35.777Z,16.53
2018-09-14T00:25:12.344Z,15.93
2018-09-14T00:27:50.912Z,17.40
2018-09-14T00:30:30.874Z,17.23
2018-09-14T00:33:10.379Z,15.53
2018-09-14T00:35:49.623Z,15.87
2018-09-14T00:38:30.192Z,15.27
2018-09-14T00:41:08.572Z,15.77
2018-09-14T00:43:52.694Z,14.07
2018-09-14T00:46:29.813Z,15.20
2018-09-14T00:49:09.535Z,14.97
2018-09-14T00:51:48.417Z,16.70
2018-09-14T00:54:24.675Z,16.77
2018-09-14T00:57:00.726Z,14.77
2018-09-14T00:59:39.972Z,14.73
2018-09-14T01:02:27.393Z,14.33
2018-09-14T01:05:03.133Z,14.03
2018-09-14T01:07:39.296Z,15.30
2018-09-14T01:10:16.839Z,13.20
2018-09-14T01:12:55.215Z,13.10
2018-09-14T01:15:35.752Z,13.63
2018-09-14T01:18:14.575Z,12.20
2018-09-14T01:20:56.253Z,13.80
2018-09-14T01:23:35.375Z,13.37
2018-09-14T01:26:14.937Z,12.60
2018-09-14T01:29:03.150Z,12.83
2018-09-14T01:31:39.366Z,12.27
2018-09-14T01:34:16.707Z,13.60
2018-09-14T01:36:54.717Z,13.13
2018-09-14T01:39:31.554Z,12.53
2018-09-14T01:42:07.898Z,14.27
2018-09-14T01:45:02.441Z,13.93
2018-09-14T01:47:42.664Z,13.40
2018-09-14T01:50:19.786Z,14.47
2018-09-14T01:53:02.426Z,12.73
2018-09-14T01:55:41.761Z,13.17
2018-09-14T01:58:21.021Z,12.53
2018-09-14T02:01:01.940Z,11.70
2018-09-14T02:03:46.871Z,12.10
2018-09-14T02:06:33.106Z,12.20
2018-09-14T02:09:12.357Z,11.83
2018-09-14T02:11:48.093Z,10.37
2018-09-14T02:14:28.437Z,10.60
2018-09-14T02:17:04.765Z,10.60
2018-09-14T02:19:43.721Z,8.50
2018-09-14T02:22:29.341Z,9.50
2018-09-14T02:25:05.608Z,9.23
2018-09-14T02:27:42.689Z,9.83
2018-09-14T02:30:21.972Z,10.67
2018-09-14T02:33:00.114Z,9.43
2018-09-14T02:35:40.218Z,10.53
2018-09-14T02:38:18.044Z,9.87
2018-09-14T02:40:54.526Z,11.00
2018-09-14T02:43:31.338Z,10.67
2018-09-14T02:46:08.913Z,10.97
2018-09-14T02:48:45.946Z,9.87
2018-09-14T02:51:26.244Z,10.33
2018-09-14T02:54:05.517Z,9.20
2018-09-14T02:56:44.735Z,9.13
2018-09-14T02:59:24.294Z,9.20
2018-09-14T03:02:02.873Z,9.73
2018-09-14T03:04:40.412Z,9.30
2018-09-14T03:07:28.577Z,10.20
2018-09-14T03:10:09.269Z,9.50
2018-09-14T03:12:47.065Z,10.87
2018-09-14T03:15:26.136Z,9.90
2018-09-14T03:18:03.925Z,8.63
2018-09-14T03:20:40.278Z,8.63
2018-09-14T03:23:18.930Z,9.53
2018-09-14T03:25:56.278Z,10.03
2018-09-14T03:28:32.433Z,9.57
2018-09-14T03:31:11.210Z,11.33
2018-09-14T03:33:49.707Z,10.50
2018-09-14T03:36:31.123Z,11.17
2018-09-14T03:39:11.538Z,10.33
2018-09-14T03:41:50.070Z,10.07
2018-09-14T03:44:27.996Z,10.43
2018-09-14T03:47:05.807Z,11.80
2018-09-14T03:49:42.055Z,11.47
2018-09-14T03:52:21.817Z,10.53
2018-09-14T03:54:58.585Z,8.73
2018-09-14T03:59:58.139Z,10.50
2018-09-14T04:02:35.685Z,9.90
2018-09-14T04:05:14.330Z,9.27
2018-09-14T04:07:54.558Z,10.63
2018-09-14T04:10:34.091Z,9.30
2018-09-14T04:13:11.650Z,9.43
2018-09-14T04:15:49.528Z,9.90
2018-09-14T04:18:27.227Z,10.77
2018-09-14T04:21:03.771Z,9.30
2018-09-14T04:23:40.913Z,11.47
2018-09-14T04:26:19.916Z,9.67
2018-09-14T04:29:01.952Z,10.33
2018-09-14T04:31:41.949Z,9.23
2018-09-14T04:34:19.956Z,8.67
2018-09-14T04:37:06.127Z,10.10
2018-09-14T04:39:42.773Z,11.10
2018-09-14T04:42:20.976Z,9.87
2018-09-14T04:45:00.418Z,10.83
2018-09-14T04:47:40.665Z,12.00
2018-09-14T04:50:18.901Z,10.87
2018-09-14T04:52:58.704Z,10.10
2018-09-14T04:55:39.764Z,13.30
2018-09-14T04:58:22.889Z,10.43
2018-09-14T05:01:03.420Z,10.50
2018-09-14T05:03:42.764Z,10.73
2018-09-14T05:06:23.081Z,10.40
2018-09-14T05:09:03.062Z,9.87
2018-09-14T05:11:43.693Z,9.70
2018-09-14T05:14:25.408Z,10.00
2018-09-14T05:17:05.914Z,9.27
2018-09-14T05:19:47.808Z,8.53
2018-09-14T05:22:27.221Z,8.53
2018-09-14T05:25:07.291Z,8.97
2018-09-14T05:27:49.387Z,7.50
2018-09-14T05:30:31.240Z,7.67
2018-09-14T05:33:12.160Z,8.63
2018-09-14T05:35:49.117Z,8.97
2018-09-14T05:38:30.240Z,9.73
2018-09-14T05:41:09.694Z,10.00
2018-09-14T05:43:53.589Z,10.70
2018-09-14T05:46:32.212Z,10.83
2018-09-14T05:49:12.890Z,12.57
2018-09-14T05:51:54.657Z,14.90
2018-09-14T05:54:34.760Z,12.63
2018-09-14T05:57:15.344Z,13.17
2018-09-14T05:59:52.111Z,11.47
2018-09-14T06:02:34.807Z,12.90
2018-09-14T06:05:13.382Z,14.93
2018-09-14T06:07:50.685Z,12.40
2018-09-14T06:10:31.638Z,12.80
2018-09-14T06:13:15.818Z,12.37
2018-09-14T06:15:57.314Z,13.07
2018-09-14T06:18:39.747Z,13.17
2018-09-14T06:21:16.955Z,12.10
2018-09-14T06:23:55.337Z,12.83
2018-09-14T06:26:35.608Z,12.50
2018-09-14T06:29:15.222Z,12.57
2018-09-14T06:31:57.667Z,13.47
2018-09-14T06:34:37.874Z,13.43
2018-09-14T06:37:16.087Z,13.13
2018-09-14T06:39:58.688Z,12.73
2018-09-14T06:42:38.726Z,12.77
2018-09-14T06:45:17.196Z,10.07
2018-09-14T06:50:39.830Z,11.43
2018-09-14T06:53:19.440Z,11.30
2018-09-14T06:56:00.827Z,11.33
2018-09-14T06:58:42.352Z,10.53
2018-09-14T07:01:21.418Z,9.80
2018-09-14T07:04:03.599Z,9.30
2018-09-14T07:06:42.306Z,10.20
2018-09-14T07:09:21.211Z,9.17
2018-09-14T07:11:59.465Z,9.77
2018-09-14T07:14:37.483Z,8.37
2018-09-14T07:17:19.616Z,8.90
2018-09-14T07:20:00.200Z,10.13
2018-09-14T07:22:42.116Z,10.07
2018-09-14T07:25:25.558Z,9.80
2018-09-14T07:28:09.653Z,9.43
2018-09-14T07:30:49.021Z,10.00
2018-09-14T07:33:30.201Z,8.97
2018-09-14T07:36:08.777Z,9.50
2018-09-14T07:38:50.257Z,10.10
2018-09-14T07:41:27.206Z,9.53
2018-09-14T07:44:07.954Z,10.90
2018-09-14T07:46:48.451Z,9.67
2018-09-14T07:49:29.609Z,10.30
2018-09-14T07:52:08.614Z,9.83
2018-09-14T07:54:49.158Z,10.50
2018-09-14T07:57:27.449Z,10.23
2018-09-14T08:00:04.970Z,9.47
2018-09-14T08:02:46.878Z,10.63
2018-09-14T08:05:30.005Z,11.27
2018-09-14T08:08:11.818Z,10.23
2018-09-14T08:10:49.751Z,10.50
2018-09-14T08:13:30.837Z,10.33
2018-09-14T08:16:11.924Z,10.13
2018-09-14T08:18:50.293Z,10.17
2018-09-14T08:21:31.685Z,9.53
2018-09-14T08:24:13.333Z,9.80
2018-09-14T08:26:55.347Z,9.40
2018-09-14T08:29:37.757Z,10.00
2018-09-14T08:32:18.401Z,10.67
2018-09-14T08:34:57.352Z,10.43
2018-09-14T08:37:35.929Z,11.30
2018-09-14T08:40:17.580Z,10.87
2018-09-14T08:42:55.086Z,11.13
2018-09-14T08:45:34.529Z,10.63
2018-09-14T08:48:13.409Z,10.60
2018-09-14T08:50:52.246Z,11.67
2018-09-14T08:53:32.431Z,11.70
2018-09-14T08:56:13.691Z,11.97
2018-09-14T08:58:53.824Z,11.33
2018-09-14T09:01:33.540Z,11.27
2018-09-14T09:04:16.147Z,10.83
2018-09-14T09:06:56.838Z,10.97
2018-09-14T09:09:37.791Z,10.83
2018-09-14T09:12:23.256Z,10.60
2018-09-14T09:15:03.917Z,9.73
2018-09-14T09:17:45.355Z,9.83
2018-09-14T09:20:26.714Z,9.87
2018-09-14T09:23:07.925Z,10.40
2018-09-14T09:25:49.543Z,10.33
2018-09-14T09:28:29.130Z,10.10
2018-09-14T09:31:16.492Z,9.93
2018-09-14T09:33:59.264Z,11.33
2018-09-14T09:36:39.808Z,10.53
2018-09-14T09:39:20.002Z,10.57
2018-09-14T09:42:00.173Z,10.37
2018-09-14T09:44:40.019Z,10.97
2018-09-14T09:47:18.907Z,10.60
2018-09-14T09:50:00.519Z,9.23
2018-09-14T09:52:41.686Z,9.27
2018-09-14T09:55:22.580Z,10.87
2018-09-14T09:58:02.310Z,9.67
2018-09-14T10:00:47.735Z,9.57
2018-09-14T10:03:29.774Z,10.90
2018-09-14T10:06:14.002Z,9.30
2018-09-14T10:08:52.755Z,9.07
2018-09-14T10:11:31.420Z,10.67
2018-09-14T10:14:09.008Z,13.80
2018-09-14T10:16:49.615Z,10.10
2018-09-14T10:19:28.788Z,10.63
2018-09-14T10:22:06.829Z,9.50
2018-09-14T10:24:44.870Z,8.77
2018-09-14T10:27:24.384Z,8.87
2018-09-14T10:30:02.690Z,8.97
2018-09-14T10:32:43.266Z,8.00
2018-09-14T10:35:25.665Z,8.13
2018-09-14T10:38:05.907Z,7.70
2018-09-14T10:40:48.498Z,7.20
2018-09-14T10:43:28.615Z,8.20
2018-09-14T10:46:09.223Z,7.50
2018-09-14T10:48:47.989Z,7.90
2018-09-14T10:51:26.367Z,7.50
2018-09-14T10:54:07.741Z,7.27
2018-09-14T10:56:46.764Z,7.23
2018-09-14T10:59:26.931Z,6.37
2018-09-14T11:02:08.628Z,6.23
2018-09-14T11:04:48.594Z,6.17
2018-09-14T11:07:28.942Z,5.80
2018-09-14T11:10:09.746Z,5.83
2018-09-14T11:12:54.877Z,5.40
2018-09-14T11:15:33.480Z,5.60
2018-09-14T11:18:12.305Z,5.00
2018-09-14T11:20:50.105Z,4.80
2018-09-14T11:23:32.796Z,5.50
2018-09-14T11:26:13.669Z,4.70
2018-09-14T11:28:52.505Z,4.23
2018-09-14T11:31:33.001Z,4.40
2018-09-14T11:34:11.708Z,4.03
2018-09-14T11:36:50.706Z,4.90
2018-09-14T11:39:32.175Z,4.97
2018-09-14T11:42:13.146Z,4.10
2018-09-14T11:44:52.970Z,4.43
2018-09-14T11:47:33.717Z,4.10
2018-09-14T11:50:16.122Z,3.90
2018-09-14T11:52:53.463Z,3.83
2018-09-14T11:55:32.502Z,4.33
2018-09-14T11:58:13.777Z,3.87
2018-09-14T12:00:58.138Z,3.80
2018-09-14T12:03:35.534Z,4.40
2018-09-14T12:06:16.458Z,3.97
2018-09-14T12:08:57.829Z,4.23
2018-09-14T12:11:35.944Z,5.13
2018-09-14T12:14:16.550Z,5.23
2018-09-14T12:17:02.418Z,4.80
2018-09-14T12:19:40.893Z,4.80
2018-09-14T12:22:23.057Z,4.23
2018-09-14T12:25:00.851Z,4.23
2018-09-14T12:27:40.310Z,4.50
2018-09-14T12:30:20.151Z,4.53
2018-09-14T12:32:59.787Z,4.00
2018-09-14T12:35:45.617Z,3.90
2018-09-14T12:38:25.381Z,3.87
2018-09-14T12:41:05.878Z,3.90
2018-09-14T12:43:43.887Z,3.87
2018-09-14T12:46:23.374Z,3.87
2018-09-14T12:49:01.199Z,3.83
2018-09-14T12:51:40.385Z,3.33
2018-09-14T12:54:23.178Z,3.33
2018-09-14T12:57:02.629Z,3.57
2018-09-14T12:59:42.785Z,2.60
2018-09-14T13:02:25.681Z,3.80
2018-09-14T13:05:05.020Z,2.83
2018-09-14T13:07:44.608Z,3.17
2018-09-14T13:10:22.532Z,3.13
2018-09-14T13:13:04.759Z,2.60
2018-09-14T13:15:47.404Z,3.77
2018-09-14T13:18:26.471Z,3.60
2018-09-14T13:21:05.338Z,3.53
2018-09-14T13:23:47.455Z,4.80
2018-09-14T13:26:30.693Z,3.90
2018-09-14T13:29:09.538Z,3.90
2018-09-14T13:31:51.236Z,4.43
2018-09-14T13:34:28.681Z,3.97
2018-09-14T13:37:06.160Z,3.67
2018-09-14T13:39:44.400Z,3.60
2018-09-14T13:42:26.720Z,3.73
2018-09-14T13:45:09.339Z,3.97
2018-09-14T13:47:51.124Z,3.47
2018-09-14T13:50:29.063Z,3.67
2018-09-14T13:53:06.883Z,3.70
2018-09-14T13:55:47.821Z,3.27
2018-09-14T13:58:32.219Z,4.53
2018-09-14T14:01:09.549Z,3.57
2018-09-14T14:03:50.600Z,3.63
2018-09-14T14:06:30.644Z,4.30
2018-09-14T14:09:14.011Z,3.93
2018-09-14T14:11:52.862Z,3.90
2018-09-14T14:14:30.395Z,3.80
2018-09-14T14:17:10.890Z,4.03
2018-09-14T14:19:48.772Z,3.87
2018-09-14T14:22:29.782Z,3.87
2018-09-14T14:25:10.983Z,4.30
2018-09-14T14:27:54.403Z,3.93
2018-09-14T14:30:34.372Z,4.17
2018-09-14T14:33:12.520Z,3.70
2018-09-14T14:35:52.324Z,4.27
2018-09-14T14:38:30.417Z,3.80
2018-09-14T14:41:10.555Z,3.50
2018-09-14T14:43:52.231Z,4.33
2018-09-14T14:46:32.390Z,4.60
2018-09-14T14:49:14.373Z,3.83
2018-09-14T14:51:54.521Z,3.67
2018-09-14T14:54:35.803Z,4.00
2018-09-14T14:57:18.085Z,3.47
2018-09-14T14:59:56.122Z,3.83
2018-09-14T15:02:36.855Z,3.57
2018-09-14T15:05:17.960Z,3.60
2018-09-14T15:08:02.646Z,4.10
2018-09-14T15:10:40.054Z,3.77
2018-09-14T15:13:36.871Z,3.53
2018-09-14T15:16:20.769Z,3.83
2018-09-14T15:18:58.793Z,3.90
2018-09-14T15:21:50.094Z,4.13
2018-09-14T15:24:28.903Z,4.40
2018-09-14T15:27:12.826Z,3.90
2018-09-14T15:29:54.022Z,3.80
2018-09-14T15:32:36.840Z,4.10
2018-09-14T15:35:17.129Z,3.80
2018-09-14T15:38:00.958Z,3.63
2018-09-14T15:40:41.124Z,3.80
2018-09-14T15:43:21.021Z,3.80
2018-09-14T15:46:01.238Z,4.30
2018-09-14T15:48:42.575Z,4.17
2018-09-14T15:51:22.454Z,4.33
2018-09-14T15:54:02.752Z,4.27
2018-09-14T15:56:45.063Z,4.53
2018-09-14T15:59:26.198Z,4.20
2018-09-14T16:02:04.101Z,4.33
2018-09-14T16:04:43.597Z,4.70
2018-09-14T16:09:43.394Z,5.13
2018-09-14T16:12:23.712Z,5.27
2018-09-14T16:15:02.941Z,4.93
2018-09-14T16:17:44.215Z,4.83
2018-09-14T16:20:23.779Z,4.73
2018-09-14T16:23:04.326Z,5.13
2018-09-14T16:25:47.186Z,5.10
2018-09-14T16:28:28.087Z,5.13
2018-09-14T16:31:07.524Z,4.70
2018-09-14T16:33:46.602Z,5.00
2018-09-14T16:36:27.602Z,5.43
2018-09-14T16:39:06.446Z,4.77
2018-09-14T16:41:46.525Z,5.00
2018-09-14T16:44:26.205Z,5.27
2018-09-14T16:47:04.216Z,5.17
2018-09-14T16:49:45.959Z,4.50
2018-09-14T16:52:27.608Z,4.80
2018-09-14T16:55:10.872Z,5.40
2018-09-14T16:57:49.096Z,4.73
2018-09-14T17:00:30.560Z,5.10
2018-09-14T17:03:14.610Z,4.77
2018-09-14T17:05:54.422Z,4.70
2018-09-14T17:08:38.702Z,4.77
2018-09-14T17:11:20.176Z,4.87
2018-09-14T17:13:59.594Z,5.47
2018-09-14T17:16:38.244Z,5.10
2018-09-14T17:19:20.573Z,5.90
2018-09-14T17:22:13.372Z,6.00
2018-09-14T17:24:58.244Z,5.77
2018-09-14T17:27:39.327Z,4.67
2018-09-14T17:30:16.053Z,4.80
2018-09-14T17:32:56.936Z,5.10
2018-09-14T17:35:39.297Z,4.53
2018-09-14T17:38:30.091Z,5.33
2018-09-14T17:41:17.466Z,4.67
2018-09-14T17:44:02.030Z,5.13
2018-09-14T17:46:49.961Z,4.90
2018-09-14T17:49:39.548Z,4.93
2018-09-14T17:52:20.139Z,5.10
2018-09-14T17:54:58.449Z,4.53
2018-09-14T17:57:42.029Z,4.93
2018-09-14T18:00:19.330Z,4.67
2018-09-14T18:02:58.822Z,4.80
2018-09-14T18:05:45.821Z,4.77
2018-09-14T18:08:27.928Z,4.80
2018-09-14T18:11:12.892Z,5.33
2018-09-14T18:13:58.507Z,4.80
2018-09-14T18:16:38.782Z,5.30
2018-09-14T18:19:19.386Z,5.37
2018-09-14T18:22:01.958Z,4.80
2018-09-14T18:24:39.914Z,6.40
2018-09-14T18:27:21.130Z,4.50
2018-09-14T18:30:00.209Z,5.50
2018-09-14T18:32:43.469Z,5.47
2018-09-14T18:35:22.049Z,5.37
2018-09-14T18:38:01.786Z,6.33
2018-09-14T18:40:41.774Z,5.77
2018-09-14T18:43:21.777Z,5.80
2018-09-14T18:46:04.069Z,5.47
2018-09-14T18:48:44.134Z,5.60
2018-09-14T18:51:25.235Z,5.57
2018-09-14T18:54:05.883Z,6.03
2018-09-14T18:56:48.076Z,5.87
2018-09-14T18:59:26.607Z,5.53
2018-09-14T19:02:07.773Z,5.20
2018-09-14T19:04:44.927Z,5.77
2018-09-14T19:07:24.283Z,5.47
2018-09-14T19:10:03.071Z,5.97
2018-09-14T19:12:46.626Z,5.37
2018-09-14T19:15:25.219Z,5.53
2018-09-14T19:18:06.055Z,5.73
2018-09-14T19:20:47.960Z,4.93
2018-09-14T19:23:27.728Z,5.50
2018-09-14T19:26:06.760Z,6.13
2018-09-14T19:28:46.924Z,5.60
2018-09-14T19:31:26.774Z,5.13
2018-09-14T19:34:07.880Z,6.13
2018-09-14T19:36:51.096Z,5.30
2018-09-14T19:39:41.897Z,5.57
2018-09-14T19:42:37.880Z,4.90
2018-09-14T19:45:16.187Z,5.90
2018-09-14T19:48:07.025Z,5.43
2018-09-14T19:50:48.738Z,5.70
2018-09-14T19:53:28.161Z,5.63
2018-09-14T19:56:10.314Z,6.13
2018-09-14T19:58:54.265Z,6.00
2018-09-14T20:04:23.343Z,4.90
2018-09-14T20:07:00.318Z,5.97
2018-09-14T20:09:38.748Z,6.13
2018-09-14T20:12:18.665Z,6.30
2018-09-14T20:15:04.950Z,8.10
2018-09-14T20:17:44.104Z,7.73
2018-09-14T20:20:23.754Z,7.43
2018-09-14T20:23:01.252Z,6.73
2018-09-14T20:25:40.987Z,7.10
2018-09-14T20:28:18.766Z,7.33
2018-09-14T20:31:00.372Z,7.13
2018-09-14T20:33:39.597Z,7.10
2018-09-14T20:36:19.614Z,6.60
2018-09-14T20:38:58.984Z,6.73
2018-09-14T20:41:36.791Z,5.87
2018-09-14T20:44:16.915Z,6.43
2018-09-14T20:46:56.947Z,6.50
2018-09-14T20:49:36.775Z,5.97
2018-09-14T20:52:19.384Z,6.17
2018-09-14T20:54:59.136Z,6.37
2018-09-14T20:57:39.400Z,7.13
2018-09-14T21:00:22.130Z,6.53
2018-09-14T21:03:00.345Z,6.13
2018-09-14T21:05:40.817Z,6.67
2018-09-14T21:08:20.484Z,5.03
2018-09-14T21:10:58.427Z,6.30
2018-09-14T21:13:39.079Z,5.30
2018-09-14T21:16:19.651Z,5.80
2018-09-14T21:18:59.630Z,5.50
2018-09-14T21:21:42.652Z,7.40
2018-09-14T21:24:20.650Z,5.93
2018-09-14T21:26:59.290Z,6.73
2018-09-14T21:29:39.595Z,7.77
2018-09-14T21:32:20.896Z,5.90
2018-09-14T21:34:59.794Z,7.90
2018-09-14T21:37:41.889Z,7.70
2018-09-14T21:40:21.968Z,7.30
2018-09-14T21:43:02.680Z,7.60
2018-09-14T21:45:44.086Z,6.97
2018-09-14T21:48:27.084Z,6.50
2018-09-14T21:51:04.873Z,7.07
2018-09-14T21:53:44.886Z,7.30
2018-09-14T21:56:26.972Z,7.97
2018-09-14T21:59:03.648Z,8.03
2018-09-14T22:01:42.141Z,7.80
2018-09-14T22:04:22.498Z,7.47
2018-09-14T22:07:01.925Z,6.90
2018-09-14T22:09:39.941Z,8.17
2018-09-14T22:12:16.239Z,6.57
2018-09-14T22:14:52.399Z,6.47
2018-09-14T22:17:28.569Z,6.27
2018-09-14T22:20:11.168Z,6.60
2018-09-14T22:22:50.390Z,6.10
2018-09-14T22:25:27.947Z,7.23
2018-09-14T22:28:06.171Z,7.03
2018-09-14T22:30:46.335Z,6.33
2018-09-14T22:33:27.198Z,6.33
2018-09-14T22:36:07.303Z,6.27
2018-09-14T22:38:45.702Z,6.50
2018-09-14T22:41:23.450Z,6.37
2018-09-14T22:44:02.919Z,6.60
2018-09-14T22:46:40.376Z,6.60
2018-09-14T22:49:20.560Z,6.53
2018-09-14T22:51:57.762Z,6.60
2018-09-14T22:54:33.642Z,6.30
2018-09-14T22:57:15.086Z,7.00
2018-09-14T22:59:52.752Z,6.00
2018-09-14T23:02:30.742Z,5.77
2018-09-14T23:05:11.096Z,6.20
2018-09-14T23:07:51.917Z,6.30
2018-09-14T23:10:29.907Z,6.13
2018-09-14T23:13:10.010Z,6.50
2018-09-14T23:15:50.788Z,6.47
2018-09-14T23:18:30.383Z,6.90
2018-09-14T23:21:16.800Z,6.63
2018-09-14T23:23:53.948Z,6.50
2018-09-14T23:26:33.090Z,6.57
2018-09-14T23:29:16.019Z,6.00
2018-09-14T23:31:56.210Z,5.57
2018-09-14T23:34:34.871Z,5.87
2018-09-14T23:37:13.723Z,5.13
2018-09-14T23:39:51.027Z,6.83
2018-09-14T23:42:27.065Z,7.53
2018-09-14T23:45:04.814Z,6.50
2018-09-14T23:47:40.933Z,5.87
2018-09-14T23:50:18.214Z,6.83
2018-09-14T23:52:55.495Z,6.07
2018-09-14T23:55:33.119Z,6.60
2018-09-14T23:58:09.338Z,5.97
